createdAt,value
2018-05-23T00:03:47.476Z,11.27
2018-05-23T00:08:49.932Z,11.37
2018-05-23T00:13:52.390Z,9.87
2018-05-23T00:18:55.719Z,10.53
2018-05-23T00:23:58.921Z,11.73
2018-05-23T00:29:01.386Z,11.70
2018-05-23T00:34:03.831Z,11.50
2018-05-23T00:39:06.329Z,12.03
2018-05-23T00:44:10.056Z,12.23
2018-05-23T00:49:12.578Z,12.10
2018-05-23T00:54:15.036Z,11.03
2018-05-23T00:59:17.486Z,11.63
2018-05-23T01:04:20.723Z,10.33
2018-05-23T01:09:23.353Z,11.07
2018-05-23T01:14:25.802Z,11.47
2018-05-23T01:19:28.262Z,11.17
2018-05-23T01:24:30.709Z,10.63
2018-05-23T01:29:33.317Z,11.97
2018-05-23T01:34:35.749Z,11.80
2018-05-23T01:39:38.974Z,11.67
2018-05-23T01:49:54.276Z,11.53
2018-05-23T01:54:56.695Z,11.67
2018-05-23T02:00:02.703Z,11.73
2018-05-23T02:05:05.158Z,11.60
2018-05-23T02:10:08.379Z,11.83
2018-05-23T02:15:10.825Z,13.17
2018-05-23T02:20:13.394Z,13.00
2018-05-23T02:25:16.752Z,13.63
2018-05-23T02:30:20.178Z,12.50
2018-05-23T02:35:23.425Z,12.90
2018-05-23T02:40:25.875Z,13.80
2018-05-23T02:45:29.148Z,12.53
2018-05-23T02:50:31.666Z,11.80
2018-05-23T02:55:34.110Z,12.87
2018-05-23T03:00:36.573Z,12.03
2018-05-23T03:05:39.806Z,12.57
2018-05-23T03:10:42.334Z,13.77
2018-05-23T03:15:44.773Z,13.40
2018-05-23T03:20:47.999Z,13.27
2018-05-23T03:25:50.486Z,13.27
2018-05-23T03:30:52.944Z,12.83
2018-05-23T03:35:55.391Z,14.43
2018-05-23T03:40:58.044Z,14.70
2018-05-23T03:46:04.593Z,14.50
2018-05-23T03:51:07.135Z,14.73
2018-05-23T03:56:09.688Z,14.37
2018-05-23T04:01:24.085Z,14.47
2018-05-23T04:06:31.194Z,13.73
2018-05-23T04:11:34.427Z,13.03
2018-05-23T04:16:37.858Z,14.00
2018-05-23T04:22:03.614Z,14.43
2018-05-23T04:27:06.063Z,14.23
2018-05-23T04:32:09.304Z,12.87
2018-05-23T04:37:11.762Z,12.97
2018-05-23T04:42:15.098Z,12.17
2018-05-23T04:47:17.546Z,11.33
2018-05-23T04:52:33.866Z,12.63
2018-05-23T04:57:36.317Z,10.93
2018-05-23T05:02:38.843Z,11.73
2018-05-23T05:08:00.686Z,10.90
2018-05-23T05:13:03.130Z,10.17
2018-05-23T05:18:05.611Z,10.60
2018-05-23T05:23:08.822Z,9.77
2018-05-23T05:28:12.045Z,10.20
2018-05-23T05:33:14.538Z,10.73
2018-05-23T05:38:17.036Z,11.40
2018-05-23T05:43:19.540Z,10.80
2018-05-23T05:48:22.025Z,10.87
2018-05-23T05:53:24.545Z,9.90
2018-05-23T05:58:26.996Z,9.43
2018-05-23T06:03:29.441Z,9.83
2018-05-23T06:08:32.260Z,10.50
2018-05-23T06:13:36.308Z,8.93
2018-05-23T06:18:39.522Z,8.07
2018-05-23T06:29:10.832Z,7.10
2018-05-23T06:34:14.298Z,7.10
2018-05-23T06:39:16.773Z,7.10
2018-05-23T06:44:19.244Z,5.07
2018-05-23T06:49:21.674Z,4.80
2018-05-23T06:54:24.129Z,4.23
2018-05-23T06:59:42.996Z,4.73
2018-05-23T07:04:45.455Z,4.47
2018-05-23T07:09:47.896Z,3.90
2018-05-23T07:14:50.389Z,3.93
2018-05-23T07:25:20.738Z,3.40
2018-05-23T07:30:23.970Z,3.40
2018-05-23T07:35:26.458Z,3.70
2018-05-23T07:40:29.670Z,3.80
2018-05-23T07:45:32.121Z,3.40
2018-05-23T07:50:35.335Z,3.73
2018-05-23T07:55:38.027Z,4.20
2018-05-23T08:00:40.469Z,3.27
2018-05-23T08:05:42.909Z,3.70
2018-05-23T08:10:46.176Z,3.53
2018-05-23T08:15:48.630Z,3.30
2018-05-23T08:21:07.100Z,3.50
2018-05-23T08:26:09.543Z,3.50
2018-05-23T08:31:11.991Z,3.43
2018-05-23T08:36:17.491Z,3.70
2018-05-23T08:41:20.038Z,3.13
2018-05-23T08:46:23.242Z,3.33
2018-05-23T08:51:25.689Z,4.00
2018-05-23T08:56:28.157Z,3.93
2018-05-23T09:01:31.382Z,3.60
2018-05-23T09:06:33.820Z,3.70
2018-05-23T09:11:37.774Z,3.30
2018-05-23T09:16:41.093Z,4.33
2018-05-23T09:21:44.289Z,3.97
2018-05-23T09:26:47.501Z,4.17
2018-05-23T09:31:50.717Z,4.00
2018-05-23T09:36:53.926Z,4.13
2018-05-23T09:41:57.138Z,4.30
2018-05-23T09:47:00.349Z,3.97
2018-05-23T09:52:03.560Z,3.80
2018-05-23T09:57:06.780Z,4.20
2018-05-23T10:02:09.976Z,3.60
2018-05-23T10:07:13.192Z,4.00
2018-05-23T10:12:16.401Z,4.27
2018-05-23T10:17:19.613Z,4.07
2018-05-23T10:22:22.938Z,3.97
2018-05-23T10:27:25.840Z,4.40
2018-05-23T10:32:29.037Z,4.37
2018-05-23T10:37:33.029Z,4.40
2018-05-23T10:42:35.479Z,4.07
2018-05-23T10:47:37.965Z,4.00
2018-05-23T10:52:40.410Z,6.07
2018-05-23T10:57:42.848Z,5.73
2018-05-23T11:02:45.325Z,4.50
2018-05-23T11:07:48.553Z,4.90
2018-05-23T11:12:50.998Z,4.93
2018-05-23T11:17:53.446Z,5.70
2018-05-23T11:22:55.890Z,4.90
2018-05-23T11:27:58.426Z,5.10
2018-05-23T11:33:00.865Z,4.63
2018-05-23T11:38:03.409Z,4.73
2018-05-23T11:43:05.900Z,4.33
2018-05-23T11:48:08.397Z,4.30
2018-05-23T11:53:10.889Z,4.13
2018-05-23T11:58:13.337Z,3.97
2018-05-23T12:03:16.320Z,4.23
2018-05-23T12:08:19.069Z,3.50
2018-05-23T12:13:22.296Z,3.97
2018-05-23T12:18:24.789Z,3.53
2018-05-23T12:23:27.233Z,3.17
2018-05-23T12:28:29.673Z,2.77
2018-05-23T12:33:32.113Z,3.30
2018-05-23T12:38:34.662Z,3.00
2018-05-23T12:43:37.106Z,3.40
2018-05-23T12:48:39.553Z,2.80
2018-05-23T12:53:41.993Z,3.30
2018-05-23T12:58:44.532Z,2.87
2018-05-23T13:03:46.972Z,2.90
2018-05-23T13:08:49.517Z,2.90
2018-05-23T13:13:51.957Z,2.97
2018-05-23T13:18:54.509Z,3.07
2018-05-23T13:23:57.008Z,3.40
2018-05-23T13:28:59.449Z,3.10
2018-05-23T13:34:02.241Z,3.43
2018-05-23T13:39:05.470Z,3.43
2018-05-23T13:44:07.995Z,3.23
2018-05-23T13:49:10.442Z,3.20
2018-05-23T13:54:12.877Z,3.37
2018-05-23T13:59:15.380Z,3.43
2018-05-23T14:04:17.761Z,3.40
2018-05-23T14:09:20.221Z,2.80
2018-05-23T14:14:22.665Z,3.10
2018-05-23T14:19:25.180Z,3.23
2018-05-23T14:24:27.540Z,3.37
2018-05-23T14:29:30.021Z,2.70
2018-05-23T14:34:32.470Z,3.17
2018-05-23T14:39:34.917Z,3.20
2018-05-23T14:44:37.391Z,3.00
2018-05-23T14:49:39.829Z,2.83
2018-05-23T14:54:42.385Z,3.07
2018-05-23T14:59:44.830Z,2.93
2018-05-23T15:04:47.269Z,3.30
2018-05-23T15:09:49.774Z,2.60
2018-05-23T15:14:52.209Z,2.83
2018-05-23T15:19:54.752Z,3.00
2018-05-23T15:24:57.101Z,2.93
2018-05-23T15:29:59.545Z,2.73
2018-05-23T15:35:02.098Z,2.67
2018-05-23T15:40:05.241Z,3.13
2018-05-23T15:45:07.809Z,2.63
2018-05-23T15:50:11.018Z,2.80
2018-05-23T15:55:14.230Z,2.50
2018-05-23T16:00:17.441Z,2.63
2018-05-23T16:05:20.669Z,3.00
2018-05-23T16:10:23.166Z,3.10
2018-05-23T16:15:25.613Z,3.10
2018-05-23T16:20:28.057Z,2.70
2018-05-23T16:25:30.506Z,2.80
2018-05-23T16:30:33.001Z,2.90
2018-05-23T16:35:35.445Z,2.90
2018-05-23T16:40:37.918Z,3.43
2018-05-23T16:45:40.394Z,3.47
2018-05-23T16:50:43.601Z,3.20
2018-05-23T16:55:46.817Z,3.50
2018-05-23T17:00:50.025Z,3.10
2018-05-23T17:05:53.349Z,3.07
2018-05-23T17:10:55.797Z,2.80
2018-05-23T17:15:59.057Z,2.97
2018-05-23T17:21:01.549Z,2.83
2018-05-23T17:26:03.993Z,2.70
2018-05-23T17:31:06.432Z,3.07
2018-05-23T17:36:08.880Z,2.80
2018-05-23T17:41:12.076Z,2.93
2018-05-23T17:46:14.661Z,2.50
2018-05-23T17:51:17.101Z,2.73
2018-05-23T17:56:20.304Z,2.57
2018-05-23T18:01:23.517Z,3.10
2018-05-23T18:06:27.457Z,3.07
2018-05-23T18:11:29.982Z,2.80
2018-05-23T18:16:32.434Z,2.60
2018-05-23T18:21:35.654Z,2.93
2018-05-23T18:26:39.476Z,2.53
2018-05-23T18:31:42.671Z,2.37
2018-05-23T18:36:47.401Z,2.40
2018-05-23T18:41:49.979Z,2.60
2018-05-23T18:46:52.437Z,2.50
2018-05-23T18:51:54.975Z,2.60
2018-05-23T18:56:57.474Z,2.50
2018-05-23T19:01:59.917Z,2.10
2018-05-23T19:07:02.366Z,2.30
2018-05-23T19:12:04.801Z,2.10
2018-05-23T19:17:07.246Z,2.10
2018-05-23T19:22:09.805Z,2.03
2018-05-23T19:27:12.244Z,1.80
2018-05-23T19:32:15.465Z,2.17
2018-05-23T19:37:18.673Z,2.20
2018-05-23T19:42:21.885Z,2.03
2018-05-23T19:47:25.117Z,1.80
2018-05-23T19:52:28.376Z,2.27
2018-05-23T19:57:31.533Z,2.10
2018-05-23T20:02:33.997Z,2.07
2018-05-23T20:07:37.209Z,2.30
2018-05-23T20:12:40.469Z,2.00
2018-05-23T20:17:42.946Z,2.17
2018-05-23T20:22:45.390Z,2.07
2018-05-23T20:27:48.602Z,1.90
2018-05-23T20:32:51.834Z,2.20
2018-05-23T20:37:55.037Z,2.17
2018-05-23T20:42:58.249Z,2.30
2018-05-23T20:48:01.469Z,2.33
2018-05-23T20:53:04.698Z,2.63
2018-05-23T20:58:07.129Z,1.90
2018-05-23T21:03:09.571Z,2.00
2018-05-23T21:08:12.081Z,1.77
2018-05-23T21:13:14.573Z,1.90
2018-05-23T21:18:17.016Z,1.90
2018-05-23T21:23:20.994Z,1.50
2018-05-23T21:28:23.442Z,1.80
2018-05-23T21:33:25.978Z,1.77
2018-05-23T21:38:29.189Z,1.63
2018-05-23T21:43:31.679Z,2.43
2018-05-23T21:48:34.415Z,1.50
2018-05-23T21:53:36.853Z,2.20
2018-05-23T21:58:39.361Z,1.97
2018-05-23T22:03:41.805Z,2.03
2018-05-23T22:08:44.348Z,1.57
2018-05-23T22:13:46.792Z,1.70
2018-05-23T22:18:50.050Z,1.93
2018-05-23T22:23:52.488Z,1.80
2018-05-23T22:28:54.947Z,1.73
2018-05-23T22:33:57.386Z,1.60
2018-05-23T22:38:59.917Z,1.60
2018-05-23T22:44:02.366Z,1.80
2018-05-23T22:49:06.344Z,1.90
2018-05-23T22:54:08.790Z,1.60
2018-05-23T22:59:11.330Z,1.90
2018-05-23T23:04:13.773Z,2.07
2018-05-23T23:09:16.982Z,1.70
2018-05-23T23:14:19.520Z,1.73
2018-05-23T23:19:21.965Z,1.80
2018-05-23T23:24:24.410Z,1.80
2018-05-23T23:29:26.853Z,1.60
2018-05-23T23:34:29.297Z,1.90
2018-05-23T23:39:31.745Z,1.60
2018-05-23T23:44:34.970Z,1.70
2018-05-23T23:49:38.922Z,1.90
2018-05-23T23:54:41.368Z,1.60
2018-05-23T23:59:44.625Z,2.00
